You are not logged in, Click here to log in
那覇空港OKA / ROAH 日本沖繩縣那霸市
ICAO: ROAH Country: 日本沖繩縣那霸市
Latitude: 26.2064 Longitude: 127.647
Total Arrivals: 301 Total Departures: 276
Latest Arrival: MM10928 (RCTP-ROAH)Lun. Wang Latest Departure: OZJ727 (ROAH-RJFU)Arthur. Kung
Scenery:
METAR : ROAH 312230Z 04008KT 9999 FEW035 23/16 Q1017

那覇空港OKA

You are accessing this site from IP address 34.201.9.19. Virtual Airline. CMS by phpVMS.Website designed by Zumeweb and edited by Theo Bearman.
There is 0 User(s) Online: | and 16 Guest(s) Online.
All information on this site is for fight simulation purposes only. This site is for flight logging for pilots of Virtual Airline&模擬飛行論壇 FlySim only.